Time;durP1;ratioP1;P1;durP2;ratioP2;P2;SDS_P1;SDS_P2;PMS_P1;PMS_P2;Temp;Humidity;BMP_temperature;BMP_pressure;BME280_temperature;BME280_humidity;BME280_pressure;Samples;Min_cycle;Max_cycle;Signal;HPM_P1;HPM_P2
2022/09/17 00:02:15;;;;;;;5.07;2.43;;;13.00;34.20;;;;;;5079023;28;20984;-60
2022/09/17 00:04:42;;;;;;;5.63;2.10;;;12.90;34.20;;;;;;5078645;28;20492;-60
2022/09/17 00:07:08;;;;;;;8.03;2.60;;;12.90;34.20;;;;;;5077864;28;20468;-58
2022/09/17 00:09:35;;;;;;;4.17;1.67;;;12.90;34.30;;;;;;5079037;28;20459;-59
2022/09/17 00:12:02;;;;;;;4.67;1.80;;;12.80;34.20;;;;;;5078894;28;20456;-60
2022/09/17 00:14:29;;;;;;;5.33;1.73;;;12.80;34.00;;;;;;5080380;28;20491;-60
2022/09/17 00:16:56;;;;;;;4.13;1.63;;;12.70;33.80;;;;;;5081725;28;20466;-60
2022/09/17 00:19:24;;;;;;;4.53;1.37;;;12.70;33.20;;;;;;5078977;28;20550;-60
2022/09/17 00:21:51;;;;;;;3.60;1.17;;;12.70;32.90;;;;;;5078105;28;20468;-60
2022/09/17 00:24:19;;;;;;;3.90;1.20;;;12.70;32.40;;;;;;5078418;28;20484;-59
2022/09/17 00:26:46;;;;;;;4.20;1.50;;;12.70;32.30;;;;;;5079836;28;20460;-60
2022/09/17 00:29:13;;;;;;;4.70;1.47;;;12.70;32.10;;;;;;5080356;28;20464;-60
2022/09/17 00:31:41;;;;;;;3.97;1.13;;;12.70;32.10;;;;;;5080223;28;20476;-60
2022/09/17 00:34:08;;;;;;;4.20;1.50;;;12.70;31.90;;;;;;5083806;28;20475;-60
2022/09/17 00:36:37;;;;;;;4.63;1.30;;;12.70;31.80;;;;;;5082564;28;20456;-60
2022/09/17 00:39:06;;;;;;;3.73;1.07;;;12.70;31.80;;;;;;5083227;28;20599;-60
2022/09/17 00:41:34;;;;;;;4.90;1.40;;;12.60;31.80;;;;;;5083819;28;20504;-59
2022/09/17 00:44:22;;;;;;;5.43;1.20;;;12.60;31.60;;;;;;5081044;28;20501;-60
2022/09/17 00:46:50;;;;;;;5.27;1.40;;;12.70;31.70;;;;;;5081722;28;20459;-60
2022/09/17 00:49:22;;;;;;;3.73;1.33;;;12.60;31.50;;;;;;5083388;28;20464;-60
2022/09/17 00:51:56;;;;;;;4.60;1.10;;;12.70;31.20;;;;;;5080175;28;20460;-59
2022/09/17 00:54:24;;;;;;;3.77;1.10;;;12.60;31.40;;;;;;5085246;28;20476;-59
2022/09/17 00:56:52;;;;;;;6.40;1.73;;;12.60;31.70;;;;;;5083909;28;20456;-59
2022/09/17 00:59:21;;;;;;;4.37;1.30;;;12.70;31.40;;;;;;5081706;28;20467;-59
2022/09/17 01:01:48;;;;;;;4.27;1.20;;;12.70;31.30;;;;;;5080119;28;20500;-59
2022/09/17 01:04:16;;;;;;;3.57;1.13;;;12.70;31.60;;;;;;5085960;28;20495;-60
2022/09/17 01:06:53;;;;;;;4.43;1.60;;;12.70;32.00;;;;;;5082691;28;20456;-60
2022/09/17 01:09:32;;;;;;;3.60;1.30;;;12.70;31.80;;;;;;5082331;28;20459;-60
2022/09/17 01:12:12;;;;;;;5.60;1.60;;;12.70;31.50;;;;;;5084812;28;20843;-60
2022/09/17 01:14:53;;;;;;;4.20;1.10;;;12.60;31.10;;;;;;5081731;28;20502;-60
2022/09/17 01:17:28;;;;;;;3.47;0.90;;;12.60;30.50;;;;;;5085396;28;20464;-60
2022/09/17 01:20:35;;;;;;;3.50;1.00;;;12.60;30.20;;;;;;5086807;28;20823;-59
2022/09/17 01:23:29;;;;;;;4.17;0.97;;;12.60;30.50;;;;;;5088883;28;20480;-60
2022/09/17 01:26:12;;;;;;;4.80;1.10;;;12.60;30.10;;;;;;5084043;28;20816;-59
2022/09/17 01:28:45;;;;;;;4.73;1.00;;;12.50;30.30;;;;;;5080028;28;21329;-59
2022/09/17 01:31:34;;;;;;;4.37;1.00;;;12.50;30.30;;;;;;5084449;28;20479;-60
2022/09/17 01:34:11;;;;;;;5.17;1.10;;;12.50;30.70;;;;;;5078114;28;21004;-60
2022/09/17 01:36:49;;;;;;;5.07;0.90;;;12.50;30.70;;;;;;5081082;28;20452;-60
2022/09/17 01:39:29;;;;;;;3.60;0.90;;;12.50;30.50;;;;;;5082977;28;21027;-59
2022/09/17 01:42:04;;;;;;;5.07;0.97;;;12.50;30.60;;;;;;5086129;28;20464;-59
2022/09/17 01:44:37;;;;;;;3.53;1.00;;;12.50;30.20;;;;;;5079842;28;20492;-59
2022/09/17 01:47:10;;;;;;;3.40;0.77;;;12.40;30.70;;;;;;5080726;28;20460;-59
2022/09/17 01:49:39;;;;;;;4.17;1.00;;;12.40;31.20;;;;;;5084458;28;20492;-59
2022/09/17 01:52:08;;;;;;;4.60;1.30;;;12.40;31.20;;;;;;5080885;28;20472;-60
2022/09/17 01:54:40;;;;;;;4.37;1.20;;;12.40;31.30;;;;;;5080806;28;20479;-60
2022/09/17 01:57:13;;;;;;;3.80;1.10;;;12.40;31.50;;;;;;5082037;28;20492;-59
2022/09/17 01:59:44;;;;;;;3.80;1.20;;;12.40;31.50;;;;;;5083285;28;20476;-59
2022/09/17 02:02:16;;;;;;;3.70;0.80;;;12.40;31.50;;;;;;5080774;28;20900;-59
2022/09/17 02:04:48;;;;;;;5.67;1.30;;;12.40;31.50;;;;;;5074383;28;20831;-59
2022/09/17 02:07:20;;;;;;;3.40;0.80;;;12.40;31.10;;;;;;5084486;28;20638;-59
2022/09/17 02:09:53;;;;;;;6.87;1.30;;;12.40;30.60;;;;;;5075138;28;20461;-60
2022/09/17 02:12:25;;;;;;;3.37;0.77;;;12.40;30.40;;;;;;5082750;28;20463;-60
2022/09/17 02:14:55;;;;;;;3.70;1.00;;;12.30;30.60;;;;;;5084140;28;20858;-59
2022/09/17 02:17:30;;;;;;;3.73;0.97;;;12.30;30.50;;;;;;5085960;28;20456;-60
2022/09/17 02:19:58;;;;;;;3.83;1.03;;;12.30;31.00;;;;;;5085300;28;20468;-60
2022/09/17 02:22:30;;;;;;;5.30;0.97;;;12.30;31.10;;;;;;5084429;28;20472;-60
2022/09/17 02:25:03;;;;;;;4.77;0.93;;;12.20;31.50;;;;;;5085105;28;20483;-60
2022/09/17 02:27:41;;;;;;;3.80;1.00;;;12.30;31.10;;;;;;5087248;28;20969;-60
2022/09/17 02:30:09;;;;;;;3.57;1.13;;;12.30;30.90;;;;;;5079146;28;20472;-60
2022/09/17 02:32:37;;;;;;;4.27;1.07;;;12.20;30.70;;;;;;5083355;28;20459;-59
2022/09/17 02:35:06;;;;;;;4.40;0.97;;;12.20;30.70;;;;;;5083229;28;20988;-59
2022/09/17 02:37:34;;;;;;;3.60;0.87;;;12.20;30.70;;;;;;5085729;28;20927;-59
2022/09/17 02:40:01;;;;;;;4.53;1.07;;;12.20;30.60;;;;;;5080894;28;20680;-59
2022/09/17 02:42:33;;;;;;;4.03;1.00;;;12.20;30.40;;;;;;5076877;28;20657;-59
2022/09/17 02:45:08;;;;;;;4.80;1.10;;;12.20;30.50;;;;;;5082403;28;20488;-60
2022/09/17 02:48:12;;;;;;;4.33;0.87;;;12.20;30.90;;;;;;5081036;28;20464;-59
2022/09/17 02:50:54;;;;;;;4.57;1.20;;;12.10;30.90;;;;;;5077515;28;20474;-60
2022/09/17 02:53:37;;;;;;;4.47;1.40;;;12.10;31.10;;;;;;5082434;28;20471;-60
2022/09/17 02:56:14;;;;;;;4.67;1.27;;;12.00;31.40;;;;;;5081181;28;20456;-59
2022/09/17 02:58:47;;;;;;;4.30;1.00;;;12.00;31.50;;;;;;5081149;28;20978;-59
2022/09/17 03:01:21;;;;;;;4.57;1.20;;;12.00;31.70;;;;;;5082227;28;20468;-59
2022/09/17 03:03:51;;;;;;;5.03;1.30;;;12.00;31.40;;;;;;5081536;28;20452;-60
2022/09/17 03:06:18;;;;;;;3.70;0.90;;;12.00;31.20;;;;;;5081707;28;20468;-60
2022/09/17 03:08:46;;;;;;;5.47;1.20;;;12.00;31.30;;;;;;5078793;28;20456;-59
2022/09/17 03:11:13;;;;;;;5.17;1.30;;;12.00;31.40;;;;;;5080578;28;20488;-59
2022/09/17 03:13:41;;;;;;;6.20;1.10;;;12.00;31.30;;;;;;5078712;28;20841;-59
2022/09/17 03:16:08;;;;;;;4.10;1.03;;;12.00;31.30;;;;;;5081148;28;20444;-60
2022/09/17 03:18:35;;;;;;;3.93;1.00;;;11.90;31.10;;;;;;5080485;28;20474;-59
2022/09/17 03:21:03;;;;;;;5.40;1.57;;;11.90;31.30;;;;;;5078290;28;20461;-60
2022/09/17 03:23:30;;;;;;;5.17;1.20;;;11.90;31.40;;;;;;5078029;28;20459;-60
2022/09/17 03:25:57;;;;;;;6.33;1.00;;;11.90;31.40;;;;;;5077775;28;20484;-59
2022/09/17 03:28:25;;;;;;;5.40;1.20;;;11.80;31.30;;;;;;5082154;28;20452;-60
2022/09/17 03:30:52;;;;;;;5.40;1.53;;;11.80;31.50;;;;;;5080541;28;20474;-60
2022/09/17 03:33:18;;;;;;;7.67;1.93;;;11.80;31.90;;;;;;5080144;28;20464;-59
2022/09/17 03:35:46;;;;;;;5.20;1.30;;;11.80;32.10;;;;;;5078934;28;20465;-59
2022/09/17 03:38:14;;;;;;;5.50;1.60;;;11.90;32.50;;;;;;5081920;28;20463;-59
2022/09/17 03:40:41;;;;;;;4.40;1.37;;;11.90;32.60;;;;;;5077944;28;20460;-60
2022/09/17 03:43:08;;;;;;;4.73;1.17;;;11.90;32.40;;;;;;5078015;28;20987;-59
2022/09/17 03:45:35;;;;;;;4.63;0.97;;;11.90;32.10;;;;;;5079134;28;20479;-59
2022/09/17 03:48:02;;;;;;;26.23;2.63;;;11.90;31.60;;;;;;5080349;28;20471;-58
2022/09/17 03:50:29;;;;;;;5.20;1.20;;;11.90;32.00;;;;;;5080963;28;20470;-59
2022/09/17 03:52:56;;;;;;;4.53;1.17;;;11.90;32.00;;;;;;5077669;28;20467;-59
2022/09/17 03:55:24;;;;;;;4.70;1.27;;;11.90;32.00;;;;;;5075564;28;20480;-59
2022/09/17 03:57:51;;;;;;;4.53;1.17;;;11.90;32.00;;;;;;5080024;28;20457;-60
2022/09/17 04:00:17;;;;;;;6.90;1.30;;;11.90;32.20;;;;;;5080068;28;20464;-60
2022/09/17 04:02:44;;;;;;;5.97;1.57;;;11.90;32.20;;;;;;5075806;28;20460;-60
2022/09/17 04:05:11;;;;;;;10.07;2.47;;;11.90;31.60;;;;;;5080570;28;20487;-60
2022/09/17 04:07:39;;;;;;;5.20;1.20;;;11.90;31.50;;;;;;5077373;28;21098;-60
2022/09/17 04:10:08;;;;;;;7.63;1.50;;;11.90;31.40;;;;;;5084240;28;20463;-59
2022/09/17 04:12:36;;;;;;;5.13;1.03;;;11.90;31.30;;;;;;5082773;28;20459;-60
2022/09/17 04:15:03;;;;;;;5.20;1.20;;;11.90;31.50;;;;;;5081987;28;20503;-60
2022/09/17 04:17:30;;;;;;;7.57;1.70;;;11.90;31.10;;;;;;5082423;28;20479;-60
2022/09/17 04:19:57;;;;;;;6.03;1.30;;;11.80;31.30;;;;;;5084008;28;20467;-59
2022/09/17 04:22:23;;;;;;;5.17;1.60;;;11.80;31.80;;;;;;5079407;28;20474;-59
2022/09/17 04:24:50;;;;;;;3.73;1.30;;;11.80;32.30;;;;;;5084590;28;20472;-60
2022/09/17 04:27:17;;;;;;;5.40;1.53;;;11.80;32.70;;;;;;5081487;28;20453;-59
2022/09/17 04:29:45;;;;;;;10.17;2.50;;;11.70;33.00;;;;;;5085625;28;20483;-60
2022/09/17 04:32:12;;;;;;;4.27;1.60;;;11.70;33.30;;;;;;5082329;28;20528;-60
2022/09/17 04:34:39;;;;;;;6.03;1.77;;;11.70;33.30;;;;;;5081893;28;20480;-60
2022/09/17 04:37:06;;;;;;;5.80;1.57;;;11.70;33.50;;;;;;5082787;28;20456;-60
2022/09/17 04:39:32;;;;;;;4.17;1.50;;;11.70;33.30;;;;;;5082544;28;20459;-59
2022/09/17 04:41:59;;;;;;;5.23;1.60;;;11.60;33.40;;;;;;5080501;28;20490;-60
2022/09/17 04:44:26;;;;;;;4.10;1.70;;;11.60;33.60;;;;;;5083813;28;20494;-60
2022/09/17 04:46:54;;;;;;;5.50;1.80;;;11.60;33.60;;;;;;5084707;28;20448;-59
2022/09/17 04:49:21;;;;;;;5.37;1.60;;;11.50;33.90;;;;;;5085253;28;20517;-59
2022/09/17 04:51:47;;;;;;;4.60;1.40;;;11.50;34.00;;;;;;5081598;28;20464;-60
2022/09/17 04:54:14;;;;;;;4.90;1.90;;;11.40;34.10;;;;;;5080961;28;20491;-59
2022/09/17 04:56:41;;;;;;;4.13;1.53;;;11.40;34.30;;;;;;5083584;28;20483;-59
2022/09/17 04:59:08;;;;;;;5.17;2.00;;;11.40;34.60;;;;;;5085191;28;20460;-60
2022/09/17 05:01:35;;;;;;;6.30;1.80;;;11.40;34.80;;;;;;5078826;28;20483;-60
2022/09/17 05:04:03;;;;;;;4.50;2.00;;;11.40;34.80;;;;;;5083371;28;20590;-59
2022/09/17 05:06:29;;;;;;;7.10;2.00;;;11.40;34.90;;;;;;5081800;28;20484;-59
2022/09/17 05:08:56;;;;;;;4.10;1.97;;;11.40;35.00;;;;;;5082915;28;20455;-60
2022/09/17 05:11:23;;;;;;;3.90;1.67;;;11.40;34.90;;;;;;5079736;28;20485;-60
2022/09/17 05:13:50;;;;;;;6.27;2.07;;;11.40;34.90;;;;;;5081548;28;20563;-60
2022/09/17 05:16:16;;;;;;;5.83;2.20;;;11.40;34.80;;;;;;5082684;28;20448;-59
2022/09/17 05:18:43;;;;;;;5.30;1.83;;;11.40;34.60;;;;;;5081872;28;20468;-59
2022/09/17 05:21:11;;;;;;;7.17;2.13;;;11.40;34.40;;;;;;5083489;28;20460;-59
2022/09/17 05:23:38;;;;;;;4.90;1.83;;;11.30;34.20;;;;;;5082181;28;20460;-60
2022/09/17 05:26:05;;;;;;;5.07;1.87;;;11.30;34.20;;;;;;5085182;28;20476;-59
2022/09/17 05:28:31;;;;;;;6.87;2.07;;;11.30;34.10;;;;;;5081535;28;20473;-60
2022/09/17 05:30:59;;;;;;;5.20;1.90;;;11.30;34.10;;;;;;5081359;28;20471;-60
2022/09/17 05:33:26;;;;;;;6.50;2.20;;;11.40;33.90;;;;;;5080085;28;20480;-59
2022/09/17 05:35:52;;;;;;;5.63;2.03;;;11.60;33.80;;;;;;5082087;28;20970;-60
2022/09/17 05:38:21;;;;;;;10.17;2.83;;;11.80;33.10;;;;;;5082135;28;20476;-60
2022/09/17 05:40:48;;;;;;;5.53;1.97;;;12.10;32.60;;;;;;5079533;28;20452;-60
2022/09/17 05:43:15;;;;;;;3.93;1.40;;;12.40;31.90;;;;;;5079862;28;20452;-60
2022/09/17 05:45:42;;;;;;;6.87;2.33;;;12.60;31.10;;;;;;5078835;28;20480;-59
2022/09/17 05:48:13;;;;;;;5.57;2.07;;;12.60;30.30;;;;;;5084455;28;20463;-60
2022/09/17 05:50:40;;;;;;;5.60;1.87;;;12.50;30.40;;;;;;5081749;28;20460;-60
2022/09/17 05:53:08;;;;;;;6.53;1.60;;;12.50;30.50;;;;;;5082919;28;20957;-60
2022/09/17 05:55:36;;;;;;;5.97;2.00;;;12.40;30.70;;;;;;5083079;28;20479;-60
2022/09/17 05:58:10;;;;;;;7.07;2.33;;;12.40;30.50;;;;;;5083030;28;20460;-60
2022/09/17 06:00:37;;;;;;;5.40;2.10;;;12.30;30.80;;;;;;5080398;28;21012;-60
2022/09/17 06:03:04;;;;;;;6.33;1.57;;;12.30;31.00;;;;;;5080010;28;20490;-59
2022/09/17 06:05:30;;;;;;;7.93;2.40;;;12.30;31.10;;;;;;5081837;28;20954;-60
2022/09/17 06:07:57;;;;;;;5.50;2.10;;;12.40;31.00;;;;;;5081973;28;20460;-60
2022/09/17 06:10:24;;;;;;;6.30;2.00;;;12.40;31.00;;;;;;5081805;28;20547;-60
2022/09/17 06:12:56;;;;;;;5.10;1.73;;;12.40;31.30;;;;;;5082926;28;20501;-60
2022/09/17 06:15:23;;;;;;;11.37;3.07;;;12.30;31.40;;;;;;5082376;28;20484;-60
2022/09/17 06:17:50;;;;;;;7.47;2.07;;;12.40;31.80;;;;;;5081330;28;20456;-60
2022/09/17 06:20:17;;;;;;;8.13;1.87;;;12.40;32.00;;;;;;5081358;28;20455;-60
2022/09/17 06:22:43;;;;;;;7.53;2.00;;;12.50;32.00;;;;;;5080957;28;21002;-60
2022/09/17 06:25:10;;;;;;;5.70;2.07;;;12.50;31.80;;;;;;5082032;28;20488;-60
2022/09/17 06:27:37;;;;;;;9.00;1.70;;;12.60;31.60;;;;;;5082221;28;20460;-59
2022/09/17 06:30:06;;;;;;;6.10;1.97;;;12.60;31.30;;;;;;5076612;28;20469;-60
2022/09/17 06:32:33;;;;;;;4.50;2.10;;;12.70;30.60;;;;;;5080137;28;20456;-59
2022/09/17 06:35:01;;;;;;;5.70;1.60;;;12.70;30.60;;;;;;5058137;22;20596;-59
2022/09/17 06:37:30;;;;;;;9.73;2.50;;;12.70;30.60;;;;;;5057453;28;20545;-59
2022/09/17 06:39:58;;;;;;;5.37;1.47;;;12.70;31.20;;;;;;5056710;28;20454;-59
2022/09/17 06:42:25;;;;;;;7.40;1.67;;;12.80;31.20;;;;;;5059851;28;20457;-60
2022/09/17 06:44:52;;;;;;;10.23;2.03;;;13.10;31.20;;;;;;5060786;28;20852;-60
2022/09/17 06:47:20;;;;;;;5.33;1.50;;;13.30;30.40;;;;;;5061612;28;21035;-59
2022/09/17 06:49:46;;;;;;;6.47;1.43;;;13.40;29.20;;;;;;5052565;28;20970;-65
2022/09/17 06:52:13;;;;;;;5.10;1.43;;;13.30;29.50;;;;;;5058982;28;20472;-63
2022/09/17 06:54:40;;;;;;;5.23;1.40;;;13.30;29.50;;;;;;5050006;28;20904;-60
2022/09/17 06:57:06;;;;;;;6.47;2.00;;;13.20;29.50;;;;;;5061132;28;20461;-59
2022/09/17 06:59:33;;;;;;;6.80;1.43;;;13.20;29.70;;;;;;5059699;28;20465;-60
2022/09/17 07:02:00;;;;;;;7.03;1.20;;;13.20;29.80;;;;;;5058297;28;20474;-61
2022/09/17 07:04:28;;;;;;;10.53;1.60;;;13.40;29.60;;;;;;5057940;28;20847;-61
2022/09/17 07:06:55;;;;;;;6.20;2.00;;;13.60;29.30;;;;;;5055704;28;20484;-60
2022/09/17 07:09:22;;;;;;;6.27;1.63;;;13.80;28.80;;;;;;5060612;28;20457;-60
2022/09/17 07:11:48;;;;;;;5.87;1.70;;;14.00;28.20;;;;;;5055589;28;20465;-62
2022/09/17 07:14:15;;;;;;;5.10;1.47;;;14.30;27.30;;;;;;5059064;28;20561;-61
2022/09/17 07:16:42;;;;;;;7.53;1.80;;;14.60;26.60;;;;;;5054496;28;20457;-61
2022/09/17 07:19:09;;;;;;;6.60;1.30;;;14.70;25.10;;;;;;5058545;28;20485;-61
2022/09/17 07:21:37;;;;;;;5.70;1.70;;;14.60;24.90;;;;;;5051662;28;20460;-61
2022/09/17 07:24:04;;;;;;;6.57;1.43;;;14.40;25.30;;;;;;5059449;28;20508;-59
2022/09/17 07:26:31;;;;;;;9.90;1.93;;;14.30;25.10;;;;;;5057876;28;20489;-60
2022/09/17 07:28:57;;;;;;;9.40;1.57;;;14.20;25.00;;;;;;5061893;28;20458;-60
2022/09/17 07:31:24;;;;;;;8.30;2.90;;;14.00;25.30;;;;;;5055044;28;20493;-60
2022/09/17 07:33:51;;;;;;;6.20;1.50;;;13.80;25.70;;;;;;5056695;28;21352;-61
2022/09/17 07:36:18;;;;;;;6.50;1.47;;;13.80;26.10;;;;;;5060809;28;20483;-60
2022/09/17 07:38:47;;;;;;;5.80;1.87;;;13.80;26.10;;;;;;5062210;28;20465;-60
2022/09/17 07:41:15;;;;;;;8.77;1.63;;;13.90;25.90;;;;;;5059326;28;20457;-61
2022/09/17 07:43:43;;;;;;;4.90;1.40;;;13.90;25.80;;;;;;5060533;28;20465;-60
2022/09/17 07:46:14;;;;;;;7.20;1.70;;;14.00;24.90;;;;;;5062444;28;20480;-60
2022/09/17 07:48:40;;;;;;;8.73;1.60;;;14.00;25.10;;;;;;5060638;28;20643;-60
2022/09/17 07:51:07;;;;;;;6.60;1.67;;;13.90;24.80;;;;;;5057801;28;20457;-60
2022/09/17 07:53:34;;;;;;;6.30;1.57;;;13.90;24.90;;;;;;5057790;28;20491;-60
2022/09/17 07:56:02;;;;;;;4.77;1.20;;;13.80;25.50;;;;;;5060319;28;20464;-60
2022/09/17 07:58:31;;;;;;;11.07;2.13;;;13.90;25.90;;;;;;5055370;28;20457;-58
2022/09/17 08:01:01;;;;;;;7.00;1.73;;;13.90;25.90;;;;;;5061815;28;20468;-61
2022/09/17 08:03:28;;;;;;;9.17;1.80;;;13.90;25.80;;;;;;5069003;28;20465;-59
2022/09/17 08:06:02;;;;;;;4.90;1.20;;;14.00;24.80;;;;;;5079131;28;20484;-59
2022/09/17 08:08:30;;;;;;;7.73;1.53;;;14.20;24.70;;;;;;5073877;28;20965;-60
2022/09/17 08:11:01;;;;;;;7.20;1.67;;;14.20;24.80;;;;;;5078025;28;20456;-60
2022/09/17 08:13:29;;;;;;;11.67;1.87;;;14.10;23.40;;;;;;5072782;28;20575;-60
2022/09/17 08:15:59;;;;;;;5.20;1.57;;;14.00;23.30;;;;;;5078059;28;20491;-60
2022/09/17 08:18:26;;;;;;;6.37;1.97;;;13.80;24.00;;;;;;5080858;28;20459;-60
2022/09/17 08:20:56;;;;;;;5.17;2.17;;;13.80;24.70;;;;;;5082308;28;20467;-59
2022/09/17 08:23:23;;;;;;;6.90;1.83;;;13.70;24.50;;;;;;5079483;28;20456;-61
2022/09/17 08:25:52;;;;;;;5.57;1.50;;;13.70;24.00;;;;;;5082528;28;20858;-63
2022/09/17 08:28:21;;;;;;;7.43;1.80;;;13.60;24.30;;;;;;5079739;28;20468;-60
2022/09/17 08:30:48;;;;;;;7.30;1.80;;;13.60;24.30;;;;;;5080150;28;20491;-60
2022/09/17 08:33:15;;;;;;;5.40;1.60;;;13.60;24.40;;;;;;5083604;28;20464;-60
2022/09/17 08:35:42;;;;;;;9.53;2.00;;;13.50;24.50;;;;;;5080872;28;20490;-59
2022/09/17 08:38:09;;;;;;;11.97;2.90;;;13.70;24.40;;;;;;5081777;28;20456;-60
2022/09/17 08:40:42;;;;;;;9.47;2.30;;;14.00;23.50;;;;;;5079906;28;20464;-62
2022/09/17 08:43:15;;;;;;;10.77;1.47;;;14.30;23.30;;;;;;5076864;28;20522;-60
2022/09/17 08:45:44;;;;;;;9.20;2.00;;;14.80;23.00;;;;;;5082952;28;20484;-60
2022/09/17 08:48:14;;;;;;;9.03;2.40;;;15.10;21.10;;;;;;5081769;28;20463;-60
2022/09/17 08:50:41;;;;;;;8.67;2.40;;;15.20;20.50;;;;;;5073727;28;20493;-59
2022/09/17 08:53:30;;;;;;;7.33;1.77;;;15.10;19.90;;;;;;5080537;28;20463;-60
2022/09/17 08:56:02;;;;;;;6.57;1.90;;;15.10;19.80;;;;;;5079096;28;20467;-59
2022/09/17 08:58:51;;;;;;;10.17;1.63;;;14.90;20.50;;;;;;5079657;28;20967;-58
2022/09/17 09:01:32;;;;;;;8.93;1.73;;;14.70;20.50;;;;;;5081593;28;20476;-58
2022/09/17 09:04:32;;;;;;;7.70;2.17;;;14.60;21.30;;;;;;5080587;28;20995;-58
2022/09/17 09:07:04;;;;;;;6.17;1.47;;;14.50;21.30;;;;;;5029806;28;20491;-59
2022/09/17 09:09:36;;;;;;;5.77;1.37;;;14.30;21.00;;;;;;5081203;28;20838;-59
2022/09/17 09:12:07;;;;;;;10.10;1.93;;;14.10;21.70;;;;;;5085020;28;20465;-58
2022/09/17 09:14:40;;;;;;;4.37;1.40;;;14.00;23.10;;;;;;5074983;28;20483;-59
2022/09/17 09:17:09;;;;;;;5.13;1.30;;;13.80;24.30;;;;;;5084452;28;20964;-58
2022/09/17 09:19:43;;;;;;;9.87;1.70;;;13.70;25.20;;;;;;5083656;28;20467;-58
2022/09/17 09:22:25;;;;;;;4.67;1.30;;;13.70;25.80;;;;;;5081462;28;20453;-57
2022/09/17 09:25:03;;;;;;;4.57;1.17;;;13.70;26.20;;;;;;5084032;28;20487;-57
2022/09/17 09:27:36;;;;;;;4.03;1.40;;;13.60;25.70;;;;;;5084716;28;20476;-56
2022/09/17 09:30:06;;;;;;;5.63;1.50;;;13.60;26.00;;;;;;5077447;28;20469;-59
2022/09/17 09:32:51;;;;;;;4.23;1.40;;;13.50;25.90;;;;;;5059580;28;20457;-57
2022/09/17 09:35:20;;;;;;;4.30;1.07;;;13.50;26.10;;;;;;5058810;28;20484;-58
2022/09/17 09:37:54;;;;;;;6.67;1.37;;;13.50;25.60;;;;;;5063867;28;20453;-57
2022/09/17 09:40:34;;;;;;;4.80;0.80;;;13.40;28.10;;;;;;5058687;28;20457;-57
2022/09/17 09:43:07;;;;;;;3.40;0.73;;;13.30;27.50;;;;;;5062174;28;20475;-58
2022/09/17 09:45:47;;;;;;;3.40;0.70;;;13.30;27.50;;;;;;5062032;28;20568;-58
2022/09/17 09:48:24;;;;;;;4.43;0.90;;;13.20;27.90;;;;;;5060744;28;20478;-57
2022/09/17 09:51:04;;;;;;;3.30;0.77;;;13.20;27.90;;;;;;5058152;28;20460;-59
2022/09/17 09:53:41;;;;;;;4.63;0.70;;;13.20;28.80;;;;;;5060241;28;23094;-59
2022/09/17 09:56:28;;;;;;;3.90;0.90;;;13.30;28.80;;;;;;5060011;28;20467;-59
2022/09/17 09:58:54;;;;;;;3.40;0.90;;;13.50;29.00;;;;;;5057375;28;20469;-57
2022/09/17 10:01:21;;;;;;;4.43;0.83;;;13.80;28.40;;;;;;5068256;28;20479;-58
2022/09/17 10:03:52;;;;;;;4.07;0.80;;;14.00;28.10;;;;;;5078908;28;20484;-59
2022/09/17 10:06:20;;;;;;;5.10;1.10;;;14.00;28.20;;;;;;5081748;28;20457;-59
2022/09/17 10:09:11;;;;;;;4.30;0.90;;;14.00;28.60;;;;;;5080043;28;20471;-61
2022/09/17 10:11:38;;;;;;;5.20;0.70;;;13.90;28.30;;;;;;5080353;28;20467;-61
2022/09/17 10:14:24;;;;;;;3.73;0.70;;;13.90;27.90;;;;;;5079915;28;20484;-60
2022/09/17 10:17:11;;;;;;;4.27;1.27;;;13.80;28.40;;;;;;5081086;28;20459;-60
2022/09/17 10:19:40;;;;;;;3.77;0.73;;;13.70;28.80;;;;;;5078671;28;20468;-61
2022/09/17 10:22:23;;;;;;;3.97;0.97;;;13.60;29.40;;;;;;5082761;28;20461;-61
2022/09/17 10:24:52;;;;;;;4.73;0.80;;;13.60;30.00;;;;;;5080352;28;20532;-61
2022/09/17 10:27:21;;;;;;;6.30;1.20;;;13.60;30.30;;;;;;5080634;28;21011;-61
2022/09/17 10:29:50;;;;;;;5.10;1.13;;;13.70;30.70;;;;;;5083133;28;20453;-61
2022/09/17 10:32:18;;;;;;;3.67;0.90;;;13.90;30.20;;;;;;5084586;28;20873;-61
2022/09/17 10:34:59;;;;;;;4.17;1.47;;;14.10;29.80;;;;;;5083573;28;20534;-60
2022/09/17 10:37:35;;;;;;;4.70;1.23;;;14.30;28.60;;;;;;5081442;28;20472;-69
2022/09/17 10:40:12;;;;;;;13.73;2.40;;;14.30;27.80;;;;;;5081946;28;20467;-62
2022/09/17 10:42:38;;;;;;;9.03;1.43;;;14.30;28.00;;;;;;5080642;28;21700;-65
2022/09/17 10:45:23;;;;;;;4.03;1.40;;;14.50;27.60;;;;;;5078167;28;20484;-62
2022/09/17 10:47:51;;;;;;;10.67;2.00;;;14.70;27.50;;;;;;5076247;28;21000;-63
2022/09/17 10:50:29;;;;;;;9.20;1.37;;;15.10;27.00;;;;;;5080814;28;20461;-63
2022/09/17 10:53:00;;;;;;;6.83;2.17;;;16.60;23.20;;;;;;5081466;28;20464;-60
2022/09/17 10:55:32;;;;;;;7.87;1.60;;;17.50;20.40;;;;;;5074733;28;20481;-60
2022/09/17 10:58:21;;;;;;;7.20;1.10;;;18.90;19.80;;;;;;5081531;28;20456;-68
2022/09/17 11:01:02;;;;;;;5.20;1.40;;;20.30;15.50;;;;;;5074392;28;20487;-65
2022/09/17 11:03:51;;;;;;;7.20;1.20;;;20.70;12.40;;;;;;5080973;28;20456;-68
2022/09/17 11:07:05;;;;;;;6.53;1.53;;;20.00;13.30;;;;;;5076735;28;20492;-68
2022/09/17 11:09:46;;;;;;;4.33;1.30;;;19.10;13.30;;;;;;5036501;28;20461;-66
2022/09/17 11:12:29;;;;;;;4.80;1.40;;;18.30;14.90;;;;;;5081244;28;20460;-63
2022/09/17 11:15:03;;;;;;;5.70;1.53;;;17.60;16.70;;;;;;5083037;28;20498;-64
2022/09/17 11:17:48;;;;;;;6.13;1.50;;;17.10;17.80;;;;;;5080864;28;20452;-64
2022/09/17 11:20:24;;;;;;;9.30;2.23;;;16.90;19.30;;;;;;5082171;28;20464;-64
2022/09/17 11:23:01;;;;;;;6.10;1.60;;;16.90;19.90;;;;;;5080062;28;20466;-67
2022/09/17 11:25:43;;;;;;;8.27;1.90;;;16.70;20.00;;;;;;5081861;28;20483;-61
2022/09/17 11:28:25;;;;;;;10.00;2.90;;;16.60;19.60;;;;;;5077892;28;20487;-61
2022/09/17 11:31:02;;;;;;;6.50;2.20;;;16.40;19.70;;;;;;5078124;28;21007;-60
2022/09/17 11:33:46;;;;;;;7.30;1.90;;;16.30;20.00;;;;;;5081579;28;20502;-61
2022/09/17 11:36:19;;;;;;;4.87;1.30;;;16.30;19.20;;;;;;5080519;28;20464;-61
2022/09/17 11:38:49;;;;;;;7.03;1.23;;;16.10;19.10;;;;;;5077927;28;20464;-65
2022/09/17 11:41:21;;;;;;;4.27;1.27;;;15.90;19.50;;;;;;5081912;28;20472;-60
2022/09/17 11:43:59;;;;;;;9.23;2.27;;;15.70;20.30;;;;;;5078485;28;20872;-67
2022/09/17 11:46:30;;;;;;;6.13;1.53;;;15.40;21.50;;;;;;5078543;28;20461;-69
2022/09/17 11:49:02;;;;;;;7.80;1.20;;;15.30;22.20;;;;;;5079101;28;20483;-67
2022/09/17 11:51:34;;;;;;;7.00;1.57;;;15.10;22.70;;;;;;5079967;28;20464;-67
2022/09/17 11:54:06;;;;;;;6.40;1.10;;;14.90;23.40;;;;;;5079338;28;20472;-70
2022/09/17 11:56:41;;;;;;;5.90;1.80;;;14.70;23.80;;;;;;5077961;28;20579;-69
2022/09/17 11:59:18;;;;;;;6.80;0.93;;;14.50;25.20;;;;;;5068950;28;20578;-67
2022/09/17 12:01:51;;;;;;;7.97;1.00;;;14.40;25.60;;;;;;5065815;28;21048;-64
2022/09/17 12:04:41;;;;;;;4.70;1.30;;;14.30;26.30;;;;;;5068652;28;20480;-63
2022/09/17 12:07:21;;;;;;;7.93;1.40;;;14.50;29.30;;;;;;5071886;28;20480;-62
2022/09/17 12:09:56;;;;;;;4.50;1.07;;;14.80;28.20;;;;;;5070160;28;20475;-63
2022/09/17 12:12:26;;;;;;;3.43;0.87;;;15.00;26.90;;;;;;5072624;28;20453;-64
2022/09/17 12:14:57;;;;;;;4.33;1.47;;;15.10;24.90;;;;;;5074614;28;21017;-65
2022/09/17 12:17:31;;;;;;;4.80;1.20;;;15.00;23.60;;;;;;5070678;28;20452;-64
2022/09/17 12:20:04;;;;;;;3.70;1.30;;;14.80;23.10;;;;;;5069537;28;20452;-65
2022/09/17 12:22:34;;;;;;;4.07;0.93;;;14.60;23.70;;;;;;5065146;28;20956;-65
2022/09/17 12:25:02;;;;;;;4.60;1.27;;;14.60;25.60;;;;;;5070416;28;20843;-64
2022/09/17 12:27:36;;;;;;;7.63;2.53;;;14.60;26.20;;;;;;5074514;28;20495;-64
2022/09/17 12:30:10;;;;;;;5.37;2.40;;;14.60;26.80;;;;;;5078930;28;20471;-64
2022/09/17 12:33:03;;;;;;;5.73;1.60;;;14.60;26.60;;;;;;5076025;28;20463;-64
2022/09/17 12:35:53;;;;;;;8.07;3.10;;;14.60;26.30;;;;;;5062703;28;20498;-65
2022/09/17 12:38:37;;;;;;;5.23;1.43;;;14.60;25.80;;;;;;5077497;28;20471;-62
2022/09/17 12:41:10;;;;;;;6.93;3.13;;;14.60;26.50;;;;;;5075184;28;20549;-66
2022/09/17 12:44:00;;;;;;;5.23;3.00;;;14.60;26.80;;;;;;5077444;28;20559;-69
2022/09/17 12:46:41;;;;;;;9.63;1.97;;;14.80;26.40;;;;;;5073739;28;20464;-67
2022/09/17 12:49:23;;;;;;;7.03;3.13;;;15.10;25.20;;;;;;5076875;28;21087;-68
2022/09/17 12:51:57;;;;;;;5.83;1.73;;;15.40;23.40;;;;;;5079646;28;20826;-68
2022/09/17 12:54:42;;;;;;;9.33;3.77;;;15.60;22.70;;;;;;5078684;28;20482;-68
2022/09/17 12:57:21;;;;;;;8.83;2.57;;;15.80;22.10;;;;;;5081240;28;20820;-67
2022/09/17 12:59:54;;;;;;;7.00;1.80;;;16.00;21.80;;;;;;5077468;28;20459;-68
2022/09/17 13:02:26;;;;;;;7.07;3.17;;;16.20;22.00;;;;;;5076321;28;20476;-67
2022/09/17 13:05:20;;;;;;;8.13;1.90;;;16.40;21.20;;;;;;5080362;28;20494;-67
2022/09/17 13:08:23;;;;;;;6.47;2.27;;;16.50;21.30;;;;;;5077288;28;20862;-67
2022/09/17 13:11:27;;;;;;;6.73;1.40;;;16.40;19.60;;;;;;4998421;28;20462;-67